Time;durP1;ratioP1;P1;durP2;ratioP2;P2;SDS_P1;SDS_P2;PMS_P1;PMS_P2;Temp;Humidity;BMP_temperature;BMP_pressure;BME280_temperature;BME280_humidity;BME280_pressure;Samples;Min_cycle;Max_cycle;Signal;HPM_P1;HPM_P2
2024/01/31 00:00:45;;;;;;;4.67;1.60;;;7.10;99.90;;;;;;5015213;28;20483;-61
2024/01/31 00:03:13;;;;;;;4.37;1.43;;;7.10;99.90;;;;;;5014263;28;20495;-61
2024/01/31 00:05:41;;;;;;;4.30;1.40;;;7.00;99.90;;;;;;5018969;28;20863;-61
2024/01/31 00:08:09;;;;;;;2.30;1.20;;;7.00;99.90;;;;;;5015131;28;20486;-61
2024/01/31 00:10:37;;;;;;;2.67;1.30;;;6.90;99.90;;;;;;5014136;28;20485;-61
2024/01/31 00:13:06;;;;;;;4.70;1.63;;;6.90;99.90;;;;;;5017866;28;20475;-61
2024/01/31 00:15:34;;;;;;;4.73;1.30;;;6.80;99.90;;;;;;5018939;28;20529;-62
2024/01/31 00:18:02;;;;;;;2.73;1.27;;;6.80;99.90;;;;;;5016384;28;20463;-62
2024/01/31 00:20:31;;;;;;;4.23;1.70;;;6.80;99.90;;;;;;5015373;28;20479;-62
2024/01/31 00:22:59;;;;;;;2.90;1.40;;;6.80;99.90;;;;;;5016271;28;20590;-61
2024/01/31 00:25:27;;;;;;;3.30;1.07;;;6.70;99.90;;;;;;5018516;28;20546;-61
2024/01/31 00:27:55;;;;;;;2.30;1.27;;;6.70;99.90;;;;;;5012903;28;20475;-61
2024/01/31 00:30:24;;;;;;;2.30;1.17;;;6.60;99.90;;;;;;5016606;28;20496;-62
2024/01/31 00:32:52;;;;;;;3.23;1.50;;;6.60;99.90;;;;;;5018530;28;20580;-61
2024/01/31 00:35:20;;;;;;;2.00;1.33;;;6.60;99.90;;;;;;5018024;28;20475;-61
2024/01/31 00:37:48;;;;;;;2.07;1.40;;;6.60;99.90;;;;;;5020432;28;20467;-61
2024/01/31 00:40:16;;;;;;;6.33;1.87;;;6.60;99.90;;;;;;5014488;28;20658;-61
2024/01/31 00:42:44;;;;;;;3.77;1.50;;;6.60;99.90;;;;;;5013924;28;20502;-61
2024/01/31 00:45:14;;;;;;;3.67;1.40;;;6.60;99.90;;;;;;5015131;28;20497;-61
2024/01/31 00:47:43;;;;;;;4.33;1.60;;;6.60;99.90;;;;;;5016646;28;20479;-61
2024/01/31 00:50:12;;;;;;;7.20;1.80;;;6.50;99.90;;;;;;5020299;28;20515;-62
2024/01/31 00:52:41;;;;;;;6.50;1.70;;;6.50;99.90;;;;;;5021318;28;20491;-62
2024/01/31 00:55:09;;;;;;;4.83;2.20;;;6.50;99.90;;;;;;5019807;28;20494;-62
2024/01/31 00:57:37;;;;;;;5.30;1.93;;;6.50;99.90;;;;;;5014426;28;20845;-62
2024/01/31 01:00:08;;;;;;;5.93;1.80;;;6.40;99.90;;;;;;5010789;28;21022;-61
2024/01/31 01:02:40;;;;;;;3.63;1.80;;;6.50;99.90;;;;;;5000601;28;20571;-64
2024/01/31 01:05:10;;;;;;;5.90;1.80;;;6.40;99.90;;;;;;4997105;28;21039;-62
2024/01/31 01:07:39;;;;;;;6.23;1.83;;;6.40;99.90;;;;;;4993887;28;20468;-61
2024/01/31 01:10:10;;;;;;;5.20;1.87;;;6.40;99.90;;;;;;4998263;28;20491;-62
2024/01/31 01:12:38;;;;;;;3.47;2.27;;;6.40;99.90;;;;;;4996624;28;20492;-62
2024/01/31 01:15:08;;;;;;;4.53;2.40;;;6.40;99.90;;;;;;4993093;28;21017;-61
2024/01/31 01:17:43;;;;;;;4.60;2.00;;;6.40;99.90;;;;;;4996404;28;20468;-61
2024/01/31 01:20:13;;;;;;;3.53;2.03;;;6.40;99.90;;;;;;4998775;28;20488;-61
2024/01/31 01:22:42;;;;;;;3.80;1.80;;;6.30;99.90;;;;;;5001236;28;20685;-61
2024/01/31 01:25:11;;;;;;;3.97;1.90;;;6.30;99.90;;;;;;4995628;28;21021;-61
2024/01/31 01:27:39;;;;;;;1.90;1.60;;;6.30;99.90;;;;;;5000198;28;20559;-61
2024/01/31 01:30:08;;;;;;;5.07;2.10;;;6.30;99.90;;;;;;5000442;28;20478;-62
2024/01/31 01:32:36;;;;;;;4.63;1.50;;;6.20;99.90;;;;;;4998521;28;20519;-64
2024/01/31 01:35:05;;;;;;;2.07;1.10;;;6.20;99.90;;;;;;4994055;28;21042;-61
2024/01/31 01:37:34;;;;;;;2.43;1.10;;;6.20;99.90;;;;;;4998251;28;20480;-62
2024/01/31 01:40:03;;;;;;;3.17;0.97;;;6.20;99.90;;;;;;4997310;28;20907;-62
2024/01/31 01:42:31;;;;;;;4.73;1.03;;;6.30;99.90;;;;;;4997604;28;20503;-61
2024/01/31 01:44:59;;;;;;;2.13;0.80;;;6.20;99.90;;;;;;4996620;28;21011;-61
2024/01/31 01:47:27;;;;;;;5.87;1.20;;;6.20;99.90;;;;;;4992223;28;20479;-61
2024/01/31 01:49:55;;;;;;;2.10;0.77;;;6.20;99.90;;;;;;4996314;28;20495;-62
2024/01/31 01:52:24;;;;;;;2.53;0.90;;;6.20;99.90;;;;;;5000414;28;20488;-62
2024/01/31 01:54:54;;;;;;;4.30;0.97;;;6.10;99.90;;;;;;4996616;28;20468;-61
2024/01/31 01:57:23;;;;;;;2.00;1.13;;;6.20;99.90;;;;;;4999424;28;20479;-61
2024/01/31 01:59:52;;;;;;;1.30;0.90;;;6.10;99.90;;;;;;5001727;28;20483;-61
2024/01/31 02:02:21;;;;;;;1.23;0.80;;;6.10;99.90;;;;;;4999834;28;20499;-61
2024/01/31 02:04:49;;;;;;;4.57;0.80;;;6.10;99.90;;;;;;4997167;28;21025;-61
2024/01/31 02:07:21;;;;;;;2.73;0.90;;;6.10;99.90;;;;;;4999527;28;20571;-62
2024/01/31 02:09:50;;;;;;;1.37;0.77;;;6.10;99.90;;;;;;4994462;28;20468;-62
2024/01/31 02:12:19;;;;;;;0.97;0.77;;;6.10;99.90;;;;;;4994785;28;20570;-62
2024/01/31 02:14:48;;;;;;;1.10;0.90;;;6.10;99.90;;;;;;4997357;28;20658;-62
2024/01/31 02:17:16;;;;;;;1.70;0.60;;;6.00;99.90;;;;;;4996883;28;20575;-62
2024/01/31 02:19:44;;;;;;;2.40;0.90;;;6.00;99.90;;;;;;5001780;28;20839;-61
2024/01/31 02:22:17;;;;;;;1.80;0.90;;;6.00;99.90;;;;;;4997019;28;20978;-61
2024/01/31 02:24:46;;;;;;;4.17;1.07;;;6.00;99.90;;;;;;4997674;28;21390;-62
2024/01/31 02:27:14;;;;;;;2.87;0.90;;;5.90;99.90;;;;;;5000478;28;20558;-61
2024/01/31 02:29:42;;;;;;;4.00;0.90;;;5.90;99.90;;;;;;4994398;28;20514;-61
2024/01/31 02:32:10;;;;;;;3.53;0.93;;;5.90;99.90;;;;;;4992232;28;22090;-62
2024/01/31 02:34:38;;;;;;;1.00;0.70;;;5.90;99.90;;;;;;4985606;28;20474;-61
2024/01/31 02:37:06;;;;;;;1.87;0.97;;;5.90;99.90;;;;;;4995960;28;20598;-61
2024/01/31 02:39:36;;;;;;;2.20;1.03;;;5.80;99.90;;;;;;5011631;28;20959;-65
2024/01/31 02:42:05;;;;;;;2.60;0.90;;;5.80;99.90;;;;;;5039890;28;20511;-61
2024/01/31 02:44:33;;;;;;;2.83;0.80;;;5.80;99.90;;;;;;5041265;28;20511;-61
2024/01/31 02:47:01;;;;;;;2.90;0.80;;;5.70;99.90;;;;;;5030814;28;20501;-62
2024/01/31 02:49:29;;;;;;;0.90;0.57;;;5.80;99.90;;;;;;5020977;28;20523;-62
2024/01/31 02:51:57;;;;;;;4.57;0.80;;;5.70;99.90;;;;;;5015848;28;20877;-61
2024/01/31 02:54:25;;;;;;;1.60;0.70;;;5.70;99.90;;;;;;5017317;28;20472;-62
2024/01/31 02:56:54;;;;;;;1.90;0.90;;;5.70;99.90;;;;;;5012773;28;20575;-61
2024/01/31 02:59:22;;;;;;;3.40;1.20;;;5.70;99.90;;;;;;5017782;28;20558;-61
2024/01/31 03:01:50;;;;;;;4.30;1.20;;;5.70;99.90;;;;;;5016203;28;20501;-61
2024/01/31 03:04:18;;;;;;;2.67;1.17;;;5.70;99.90;;;;;;5018259;28;20475;-62
2024/01/31 03:06:46;;;;;;;1.77;0.90;;;5.70;99.90;;;;;;5016706;28;20471;-61
2024/01/31 03:09:15;;;;;;;5.13;1.70;;;5.70;99.90;;;;;;5018603;28;20475;-61
2024/01/31 03:11:45;;;;;;;2.80;1.20;;;5.70;99.90;;;;;;5020221;28;21007;-61
2024/01/31 03:14:15;;;;;;;1.63;1.07;;;5.70;99.90;;;;;;5019356;28;20471;-61
2024/01/31 03:16:43;;;;;;;1.50;0.77;;;5.70;99.90;;;;;;5021140;28;20964;-61
2024/01/31 03:19:11;;;;;;;1.83;1.00;;;5.70;99.90;;;;;;5017587;28;20471;-61
2024/01/31 03:21:39;;;;;;;4.13;1.13;;;5.70;99.90;;;;;;5020272;28;20904;-61
2024/01/31 03:24:09;;;;;;;2.87;0.77;;;5.70;99.90;;;;;;5019778;28;20468;-62
2024/01/31 03:26:37;;;;;;;4.33;0.97;;;5.70;99.90;;;;;;5017691;28;21085;-61
2024/01/31 03:29:05;;;;;;;3.03;1.00;;;5.60;99.90;;;;;;5015893;28;20570;-61
2024/01/31 03:31:35;;;;;;;2.87;1.20;;;5.60;99.90;;;;;;5015495;28;20557;-61
2024/01/31 03:34:04;;;;;;;3.53;0.90;;;5.60;99.90;;;;;;5017126;28;20551;-62
2024/01/31 03:36:33;;;;;;;2.40;0.80;;;5.60;99.90;;;;;;5011290;28;20475;-62
2024/01/31 03:39:01;;;;;;;4.63;1.40;;;5.60;99.90;;;;;;5017614;28;20595;-62
2024/01/31 03:41:29;;;;;;;6.00;1.70;;;5.60;99.90;;;;;;5020802;28;20497;-62
2024/01/31 03:43:57;;;;;;;3.70;1.13;;;5.60;99.90;;;;;;5020620;28;20964;-62
2024/01/31 03:46:25;;;;;;;2.60;1.10;;;5.60;99.90;;;;;;5018254;28;20499;-62
2024/01/31 03:48:55;;;;;;;6.30;1.30;;;5.60;99.90;;;;;;5017269;28;21673;-61
2024/01/31 03:51:24;;;;;;;4.97;1.20;;;5.50;99.90;;;;;;5013909;28;20499;-61
2024/01/31 03:53:52;;;;;;;5.07;1.30;;;5.60;99.90;;;;;;5014846;28;20471;-61
2024/01/31 03:56:19;;;;;;;2.70;1.00;;;5.60;99.90;;;;;;5013806;28;20530;-61
2024/01/31 03:58:47;;;;;;;3.33;1.90;;;5.50;99.90;;;;;;5019433;28;21055;-61
2024/01/31 04:01:16;;;;;;;3.23;1.27;;;5.50;99.90;;;;;;5014296;28;21799;-61
2024/01/31 04:03:46;;;;;;;4.50;1.60;;;5.50;99.90;;;;;;5018008;28;20482;-61
2024/01/31 04:06:15;;;;;;;5.43;1.03;;;5.50;99.90;;;;;;5013506;28;20490;-61
2024/01/31 04:08:43;;;;;;;2.80;1.00;;;5.50;99.90;;;;;;5017488;28;20474;-62
2024/01/31 04:11:11;;;;;;;6.10;1.23;;;5.50;99.90;;;;;;5001319;28;20574;-62
2024/01/31 04:13:39;;;;;;;4.97;1.73;;;5.50;99.90;;;;;;4997508;28;20483;-61
2024/01/31 04:16:07;;;;;;;9.17;1.50;;;5.50;99.90;;;;;;4994011;28;20578;-61
2024/01/31 04:18:35;;;;;;;3.90;1.90;;;5.50;99.90;;;;;;4994799;28;20483;-61
2024/01/31 04:21:04;;;;;;;5.40;1.27;;;5.50;99.90;;;;;;4997993;28;20491;-62
2024/01/31 04:23:33;;;;;;;4.43;1.97;;;5.50;99.90;;;;;;4994441;28;20559;-62
2024/01/31 04:26:02;;;;;;;7.20;2.00;;;5.50;99.90;;;;;;4995464;28;21016;-61
2024/01/31 04:28:31;;;;;;;3.20;1.93;;;5.50;99.90;;;;;;4995663;28;21210;-61
2024/01/31 04:30:59;;;;;;;4.50;1.77;;;5.50;99.90;;;;;;4995737;28;20553;-61
2024/01/31 04:33:27;;;;;;;5.70;1.30;;;5.50;99.90;;;;;;4999790;28;20488;-61
2024/01/31 04:35:55;;;;;;;7.47;1.80;;;5.50;99.90;;;;;;4999173;28;20496;-61
2024/01/31 04:38:23;;;;;;;4.50;1.50;;;5.50;99.90;;;;;;4994043;28;20478;-62
2024/01/31 04:40:52;;;;;;;5.43;1.63;;;5.50;99.90;;;;;;4996267;28;21452;-62
2024/01/31 04:43:21;;;;;;;4.67;1.20;;;5.50;99.90;;;;;;4998691;28;20559;-61
2024/01/31 04:45:49;;;;;;;5.00;1.97;;;5.50;99.90;;;;;;4993291;28;20492;-61
2024/01/31 04:48:17;;;;;;;4.20;1.53;;;5.50;99.90;;;;;;5000936;28;20500;-62
2024/01/31 04:50:45;;;;;;;3.10;1.60;;;5.50;99.90;;;;;;4997610;28;20492;-62
2024/01/31 04:53:13;;;;;;;3.97;1.10;;;5.50;99.90;;;;;;5002570;28;20500;-62
2024/01/31 04:55:41;;;;;;;3.80;2.20;;;5.60;99.90;;;;;;5000166;28;20475;-61
2024/01/31 04:58:10;;;;;;;5.77;1.40;;;5.60;99.90;;;;;;4992034;28;20591;-62
2024/01/31 05:00:38;;;;;;;5.67;1.20;;;5.60;99.90;;;;;;4996564;28;20495;-62
2024/01/31 05:03:07;;;;;;;5.27;1.60;;;5.60;99.90;;;;;;4998092;28;20650;-61
2024/01/31 05:05:35;;;;;;;5.10;1.20;;;5.60;99.90;;;;;;4999130;28;22423;-62
2024/01/31 05:08:04;;;;;;;7.43;2.00;;;5.60;99.90;;;;;;5000602;28;20530;-61
2024/01/31 05:10:34;;;;;;;4.73;1.80;;;5.50;99.90;;;;;;4998303;28;21124;-61
2024/01/31 05:13:02;;;;;;;5.70;1.90;;;5.60;99.90;;;;;;5001597;28;20484;-61
2024/01/31 05:15:31;;;;;;;5.40;1.40;;;5.50;99.90;;;;;;4990333;28;20890;-62
2024/01/31 05:18:00;;;;;;;3.70;1.30;;;5.50;99.90;;;;;;4995554;28;20618;-62
2024/01/31 05:20:29;;;;;;;5.03;1.67;;;5.50;99.90;;;;;;4995769;28;20519;-62
2024/01/31 05:22:57;;;;;;;7.60;1.43;;;5.50;99.90;;;;;;4996279;28;20524;-62
2024/01/31 05:25:25;;;;;;;3.20;1.43;;;5.50;99.90;;;;;;4994066;28;20571;-62
2024/01/31 05:27:54;;;;;;;3.50;1.30;;;5.50;99.90;;;;;;5001106;28;20982;-62
2024/01/31 05:30:22;;;;;;;7.13;1.43;;;5.50;99.90;;;;;;4994407;28;20572;-61
2024/01/31 05:32:51;;;;;;;1.63;1.07;;;5.50;99.90;;;;;;4985550;28;20485;-62
2024/01/31 05:35:21;;;;;;;4.33;1.30;;;5.60;99.90;;;;;;4991923;28;20522;-62
2024/01/31 05:37:49;;;;;;;3.83;1.77;;;5.60;99.90;;;;;;4998096;28;20464;-61
2024/01/31 05:40:18;;;;;;;3.20;1.10;;;5.60;99.90;;;;;;4998747;28;20484;-61
2024/01/31 05:42:46;;;;;;;2.87;1.83;;;5.60;99.90;;;;;;5000884;28;21029;-61
2024/01/31 05:45:16;;;;;;;4.17;1.40;;;5.60;99.90;;;;;;4997263;28;20463;-61
2024/01/31 05:47:44;;;;;;;2.70;1.20;;;5.60;99.90;;;;;;4993761;28;20578;-62
2024/01/31 05:50:14;;;;;;;4.00;1.33;;;5.60;99.90;;;;;;4994786;28;20964;-61
2024/01/31 05:52:43;;;;;;;4.53;1.57;;;5.60;99.90;;;;;;4994303;28;20495;-61
2024/01/31 05:55:14;;;;;;;5.17;1.47;;;5.60;99.90;;;;;;4990883;28;20470;-61
2024/01/31 05:57:42;;;;;;;3.67;1.30;;;5.60;99.90;;;;;;4999621;28;20476;-61
2024/01/31 06:00:13;;;;;;;6.10;1.90;;;5.60;99.90;;;;;;4993820;28;20476;-61
2024/01/31 06:02:41;;;;;;;2.70;1.00;;;5.70;99.90;;;;;;4991967;28;20527;-62
2024/01/31 06:05:09;;;;;;;5.33;1.30;;;5.70;99.90;;;;;;4997980;28;21025;-62
2024/01/31 06:07:40;;;;;;;6.37;1.40;;;5.70;99.90;;;;;;4996800;28;21232;-61
2024/01/31 06:10:09;;;;;;;2.80;1.23;;;5.60;99.90;;;;;;4993178;28;20475;-62
2024/01/31 06:12:37;;;;;;;3.70;1.47;;;5.70;99.90;;;;;;4998247;28;20495;-61
2024/01/31 06:15:06;;;;;;;6.47;1.37;;;5.60;99.90;;;;;;4996969;28;20555;-62
2024/01/31 06:17:34;;;;;;;5.50;1.90;;;5.70;99.90;;;;;;4980543;28;20615;-61
2024/01/31 06:20:04;;;;;;;7.43;1.93;;;5.70;99.90;;;;;;4983338;28;21065;-61
2024/01/31 06:22:33;;;;;;;2.33;1.37;;;5.60;99.90;;;;;;4998855;28;20539;-61
2024/01/31 06:25:03;;;;;;;4.77;1.30;;;5.60;99.90;;;;;;4998071;28;21011;-62
2024/01/31 06:27:31;;;;;;;8.23;1.50;;;5.70;99.90;;;;;;4994765;28;20510;-61
2024/01/31 06:30:00;;;;;;;2.73;1.30;;;5.70;99.90;;;;;;4996456;28;20473;-62
2024/01/31 06:32:31;;;;;;;3.90;1.20;;;5.70;99.90;;;;;;4997823;28;20488;-61
2024/01/31 06:35:00;;;;;;;5.67;1.57;;;5.70;99.90;;;;;;5000604;28;20862;-61
2024/01/31 06:37:28;;;;;;;2.20;1.30;;;5.70;99.90;;;;;;4998398;28;20551;-61
2024/01/31 06:39:56;;;;;;;6.40;1.07;;;5.70;99.90;;;;;;4998826;28;20917;-62
2024/01/31 06:42:25;;;;;;;6.90;1.33;;;5.70;99.90;;;;;;4997564;28;20506;-62
2024/01/31 06:44:54;;;;;;;6.27;1.70;;;5.70;99.90;;;;;;4996503;28;20500;-62
2024/01/31 06:47:22;;;;;;;3.70;1.63;;;5.70;99.90;;;;;;4995974;28;20496;-62
2024/01/31 06:49:50;;;;;;;6.07;2.00;;;5.80;99.90;;;;;;5000029;28;20501;-62
2024/01/31 06:52:20;;;;;;;3.93;1.33;;;5.80;99.90;;;;;;4995950;28;20527;-61
2024/01/31 06:54:48;;;;;;;5.77;1.50;;;5.70;99.90;;;;;;4996230;28;20475;-62
2024/01/31 06:57:16;;;;;;;4.33;1.93;;;5.80;99.90;;;;;;4996430;28;20475;-61
2024/01/31 06:59:46;;;;;;;3.90;1.37;;;5.80;99.90;;;;;;5000715;28;20555;-62
2024/01/31 07:02:14;;;;;;;5.80;1.27;;;5.80;99.90;;;;;;5016400;28;20560;-61
2024/01/31 07:04:42;;;;;;;8.23;1.50;;;5.80;99.90;;;;;;5019085;28;20823;-61
2024/01/31 07:07:10;;;;;;;5.10;1.50;;;5.80;99.90;;;;;;5016193;28;20911;-61
2024/01/31 07:09:38;;;;;;;3.30;1.50;;;5.80;99.90;;;;;;5019110;28;20482;-61
2024/01/31 07:12:06;;;;;;;10.43;1.60;;;5.80;99.90;;;;;;5019423;28;20911;-64
2024/01/31 07:14:34;;;;;;;4.80;1.60;;;5.80;99.90;;;;;;5016834;28;20486;-62
2024/01/31 07:17:04;;;;;;;4.27;1.47;;;5.90;99.90;;;;;;5017787;28;20463;-61
2024/01/31 07:19:32;;;;;;;5.47;1.43;;;5.90;99.90;;;;;;5019500;28;20811;-62
2024/01/31 07:22:00;;;;;;;3.13;1.37;;;5.90;99.90;;;;;;5012944;28;20498;-62
2024/01/31 07:24:28;;;;;;;4.20;1.40;;;5.90;99.90;;;;;;5019112;28;20590;-62
2024/01/31 07:26:57;;;;;;;5.40;1.57;;;5.90;99.90;;;;;;5018796;28;20515;-61
2024/01/31 07:29:25;;;;;;;4.13;1.47;;;5.80;99.90;;;;;;5018329;28;21060;-61
2024/01/31 07:31:53;;;;;;;7.80;2.10;;;5.80;99.90;;;;;;5011249;28;20487;-61
2024/01/31 07:34:23;;;;;;;4.47;1.33;;;5.90;99.90;;;;;;5018001;28;20509;-62
2024/01/31 07:36:51;;;;;;;4.73;1.37;;;5.80;99.90;;;;;;5017386;28;20486;-62
2024/01/31 07:39:19;;;;;;;6.70;2.80;;;5.80;99.90;;;;;;5017190;28;20558;-62
2024/01/31 07:41:47;;;;;;;4.30;1.20;;;5.80;99.90;;;;;;5019492;28;20573;-61
2024/01/31 07:44:15;;;;;;;3.80;1.20;;;5.90;99.90;;;;;;5018314;28;20499;-62
2024/01/31 07:46:43;;;;;;;4.53;1.23;;;5.90;99.90;;;;;;5019208;28;20843;-62
2024/01/31 07:49:11;;;;;;;4.37;1.53;;;5.90;99.90;;;;;;5038292;28;20491;-60
2024/01/31 07:51:44;;;;;;;5.07;1.40;;;5.80;99.90;;;;;;5033930;28;21111;-62
2024/01/31 07:54:13;;;;;;;7.73;1.30;;;5.90;99.90;;;;;;5027170;28;20552;-61
2024/01/31 07:56:41;;;;;;;5.40;1.40;;;5.90;99.90;;;;;;5019232;28;20538;-62
2024/01/31 07:59:09;;;;;;;6.57;1.70;;;5.90;99.90;;;;;;5018106;28;20551;-61
2024/01/31 08:01:37;;;;;;;2.80;0.93;;;5.90;99.90;;;;;;5015561;28;20491;-61
2024/01/31 08:04:05;;;;;;;4.60;1.40;;;5.90;99.90;;;;;;5019577;28;20475;-61
2024/01/31 08:06:35;;;;;;;4.80;1.53;;;5.90;99.90;;;;;;5013800;28;20486;-61
2024/01/31 08:09:04;;;;;;;5.43;1.50;;;5.90;99.90;;;;;;5015562;28;20491;-62
2024/01/31 08:11:48;;;;;;;1.90;1.43;;;5.90;99.90;;;;;;5013148;28;20502;-61
2024/01/31 08:14:16;;;;;;;4.20;1.30;;;5.90;99.90;;;;;;5014118;28;20649;-61
2024/01/31 08:16:44;;;;;;;3.53;1.47;;;5.90;99.90;;;;;;5014327;28;20471;-60
2024/01/31 08:19:12;;;;;;;3.90;1.40;;;5.90;99.90;;;;;;5019171;28;21015;-61
2024/01/31 08:21:41;;;;;;;4.77;1.57;;;5.90;99.90;;;;;;5012915;28;20506;-61
2024/01/31 08:24:10;;;;;;;4.27;1.33;;;6.00;99.90;;;;;;5022628;28;20892;-62
2024/01/31 08:26:38;;;;;;;2.87;1.40;;;6.00;99.90;;;;;;5013391;28;20482;-62
2024/01/31 08:29:07;;;;;;;4.33;1.90;;;5.90;99.90;;;;;;5018200;28;20519;-62
2024/01/31 08:31:49;;;;;;;5.83;1.60;;;6.00;99.90;;;;;;4996385;28;20579;-61
2024/01/31 08:34:17;;;;;;;6.10;1.80;;;6.10;99.90;;;;;;4991161;28;20480;-62
2024/01/31 08:36:45;;;;;;;3.13;1.90;;;6.00;99.90;;;;;;4993358;28;20476;-61
2024/01/31 08:39:15;;;;;;;6.20;1.57;;;6.00;99.90;;;;;;4997668;28;20566;-62
2024/01/31 08:41:44;;;;;;;5.60;1.40;;;6.00;99.90;;;;;;4986708;28;20558;-61
2024/01/31 08:44:12;;;;;;;7.53;2.13;;;6.00;99.90;;;;;;4991829;28;20477;-61
2024/01/31 08:46:41;;;;;;;4.77;1.50;;;6.00;99.90;;;;;;4998272;28;20547;-61
2024/01/31 08:49:29;;;;;;;7.57;2.47;;;6.00;99.90;;;;;;4996883;28;20512;-62
2024/01/31 08:51:57;;;;;;;3.03;1.77;;;6.10;99.90;;;;;;4996839;28;20519;-61
2024/01/31 08:54:26;;;;;;;5.33;1.30;;;6.10;99.90;;;;;;4995412;28;20560;-62
2024/01/31 08:56:55;;;;;;;6.87;1.80;;;6.10;99.90;;;;;;4993432;28;20578;-61
2024/01/31 08:59:23;;;;;;;4.70;1.40;;;6.10;99.90;;;;;;4996507;28;20874;-62
2024/01/31 09:01:51;;;;;;;5.77;1.63;;;6.10;99.90;;;;;;4997766;28;20488;-61
2024/01/31 09:04:19;;;;;;;7.60;2.30;;;6.20;99.90;;;;;;4996997;28;20465;-61
2024/01/31 09:06:50;;;;;;;6.47;1.50;;;6.20;99.90;;;;;;4999367;28;20468;-62
2024/01/31 09:09:18;;;;;;;6.00;1.90;;;6.30;99.90;;;;;;4998342;28;20521;-61
2024/01/31 09:11:48;;;;;;;2.97;1.13;;;6.30;99.90;;;;;;4999518;28;21660;-61
2024/01/31 09:14:16;;;;;;;8.13;2.07;;;6.30;99.90;;;;;;4996586;28;20468;-61
2024/01/31 09:16:44;;;;;;;6.23;1.90;;;6.30;99.90;;;;;;4998536;28;20588;-61
2024/01/31 09:19:12;;;;;;;4.07;1.50;;;6.30;99.90;;;;;;5001879;28;20613;-61
2024/01/31 09:21:40;;;;;;;6.23;1.40;;;6.30;99.90;;;;;;5000054;28;20550;-62
2024/01/31 09:24:09;;;;;;;5.93;2.10;;;6.30;99.90;;;;;;5001753;28;21022;-61
2024/01/31 09:26:37;;;;;;;8.90;2.03;;;6.30;99.90;;;;;;5002665;28;21008;-61
2024/01/31 09:29:06;;;;;;;4.87;1.87;;;6.30;99.90;;;;;;4997059;28;20968;-61
2024/01/31 09:31:34;;;;;;;3.30;1.60;;;6.30;99.90;;;;;;4998850;28;20952;-62
2024/01/31 09:34:02;;;;;;;4.13;1.50;;;6.30;99.90;;;;;;5002200;28;20530;-61
2024/01/31 09:36:31;;;;;;;5.27;1.90;;;6.30;99.90;;;;;;5000637;28;20566;-64
2024/01/31 09:38:59;;;;;;;5.03;1.50;;;6.30;99.90;;;;;;5004787;28;20469;-61
2024/01/31 09:41:27;;;;;;;8.30;1.60;;;6.30;99.90;;;;;;4999098;28;20499;-62
2024/01/31 09:43:55;;;;;;;3.30;1.23;;;6.40;99.90;;;;;;4999422;28;20477;-61
2024/01/31 09:46:25;;;;;;;4.70;1.30;;;6.40;99.90;;;;;;5001562;28;20562;-61
2024/01/31 09:48:53;;;;;;;6.50;1.53;;;6.50;99.90;;;;;;4998206;28;20982;-61
2024/01/31 09:51:22;;;;;;;6.23;1.50;;;6.60;99.90;;;;;;4993394;28;20562;-61
2024/01/31 09:53:53;;;;;;;2.73;1.30;;;6.60;99.90;;;;;;4998820;28;20993;-62
2024/01/31 09:56:21;;;;;;;4.80;2.03;;;6.60;99.90;;;;;;4997910;28;20478;-62
2024/01/31 09:58:49;;;;;;;3.20;1.30;;;6.70;99.90;;;;;;5002480;28;20484;-62
2024/01/31 10:01:20;;;;;;;3.27;1.40;;;6.70;99.90;;;;;;4994390;28;20507;-61
2024/01/31 10:03:59;;;;;;;4.23;1.80;;;6.70;99.90;;;;;;5002289;28;21053;-62
2024/01/31 10:06:28;;;;;;;4.40;1.80;;;6.70;99.90;;;;;;4999436;28;20513;-61
2024/01/31 10:08:57;;;;;;;7.20;2.00;;;6.80;99.90;;;;;;4999923;28;21008;-62
2024/01/31 10:11:27;;;;;;;5.20;1.87;;;6.80;99.90;;;;;;4999201;28;20516;-62
2024/01/31 10:13:55;;;;;;;5.27;1.23;;;6.90;99.90;;;;;;4999675;28;20482;-61
2024/01/31 10:16:27;;;;;;;3.03;1.40;;;6.80;99.90;;;;;;4997906;28;20563;-61
2024/01/31 10:18:55;;;;;;;4.07;1.10;;;6.80;99.90;;;;;;4997743;28;21005;-62
2024/01/31 10:21:26;;;;;;;2.70;1.40;;;6.90;99.90;;;;;;5002847;28;21228;-61
2024/01/31 10:23:58;;;;;;;5.43;1.10;;;6.90;99.90;;;;;;4998374;28;20475;-61
2024/01/31 10:26:27;;;;;;;6.90;1.63;;;6.90;99.90;;;;;;4999643;28;20476;-61
2024/01/31 10:28:56;;;;;;;4.23;1.33;;;6.90;99.90;;;;;;5001635;28;21565;-62
2024/01/31 10:31:37;;;;;;;3.03;1.50;;;6.90;99.90;;;;;;4995514;28;21039;-62
2024/01/31 10:34:07;;;;;;;5.40;1.40;;;6.90;99.90;;;;;;4999765;28;20818;-62
2024/01/31 10:36:40;;;;;;;2.03;1.53;;;6.90;99.90;;;;;;5002769;28;20492;-61
2024/01/31 10:39:11;;;;;;;3.30;1.33;;;6.90;99.90;;;;;;4998568;28;20537;-62
2024/01/31 10:41:42;;;;;;;4.37;1.10;;;6.90;99.90;;;;;;4999278;28;20510;-62
2024/01/31 10:44:11;;;;;;;2.70;1.27;;;6.90;99.90;;;;;;4999534;28;20496;-61
2024/01/31 10:46:41;;;;;;;3.97;1.30;;;6.90;99.90;;;;;;4998064;28;20482;-61
2024/01/31 10:49:09;;;;;;;2.77;1.20;;;6.90;99.90;;;;;;5002063;28;20492;-61
2024/01/31 10:51:40;;;;;;;4.40;1.20;;;6.90;99.90;;;;;;4995645;28;20503;-61
2024/01/31 10:54:09;;;;;;;2.43;1.17;;;6.90;99.90;;;;;;4999829;28;20579;-62
2024/01/31 10:56:39;;;;;;;5.93;1.37;;;6.90;99.90;;;;;;4999324;28;21240;-61
2024/01/31 10:59:12;;;;;;;5.13;1.40;;;7.00;99.90;;;;;;4994307;28;20914;-61
2024/01/31 11:01:50;;;;;;;3.93;1.40;;;7.00;99.90;;;;;;4996041;28;21052;-62
2024/01/31 11:04:19;;;;;;;2.80;1.23;;;7.00;99.90;;;;;;4997277;28;20479;-62
2024/01/31 11:06:50;;;;;;;5.93;1.70;;;7.10;99.90;;;;;;4998600;28;20495;-61
2024/01/31 11:09:21;;;;;;;4.00;1.30;;;7.10;99.90;;;;;;4994835;28;20488;-61
2024/01/31 11:12:00;;;;;;;2.97;1.47;;;7.10;99.90;;;;;;4997326;28;20515;-62
2024/01/31 11:14:29;;;;;;;1.90;1.57;;;7.10;99.90;;;;;;4998528;28;20480;-62
2024/01/31 11:17:06;;;;;;;4.47;1.20;;;7.10;99.90;;;;;;4991604;28;20484;-61
2024/01/31 11:19:39;;;;;;;2.70;1.20;;;7.00;99.90;;;;;;4998408;28;20559;-62
2024/01/31 11:22:08;;;;;;;2.83;1.07;;;7.00;99.90;;;;;;4999934;28;20522;-61
2024/01/31 11:24:43;;;;;;;3.30;1.20;;;6.90;99.90;;;;;;4997628;28;20550;-61
2024/01/31 11:27:11;;;;;;;0.80;0.80;;;6.80;99.90;;;;;;4997900;28;21110;-62
2024/01/31 11:29:39;;;;;;;2.93;1.10;;;6.80;99.90;;;;;;4996656;28;20523;-62
2024/01/31 11:32:09;;;;;;;2.47;1.30;;;6.80;99.90;;;;;;4996712;28;20488;-61
2024/01/31 11:34:37;;;;;;;1.33;1.10;;;6.70;99.90;;;;;;4996043;28;20532;-61
2024/01/31 11:37:05;;;;;;;1.50;0.97;;;6.70;99.90;;;;;;4995239;28;20473;-61
2024/01/31 11:39:35;;;;;;;2.63;1.10;;;6.70;99.90;;;;;;4992927;28;20946;-61
2024/01/31 11:42:03;;;;;;;1.30;1.00;;;6.60;99.90;;;;;;5016372;28;21012;-61
2024/01/31 11:44:32;;;;;;;2.80;1.33;;;6.60;99.90;;;;;;5017378;28;20478;-62
2024/01/31 11:47:00;;;;;;;2.50;1.00;;;6.60;99.90;;;;;;5020117;28;20479;-61
2024/01/31 11:49:29;;;;;;;3.50;1.10;;;6.50;99.90;;;;;;5017336;28;20599;-62
2024/01/31 11:51:57;;;;;;;4.23;1.40;;;6.50;99.90;;;;;;5019522;28;21099;-61
2024/01/31 11:54:25;;;;;;;1.37;1.10;;;6.50;99.90;;;;;;5016025;28;20574;-61
2024/01/31 11:56:54;;;;;;;3.00;1.00;;;6.50;99.90;;;;;;5012503;28;20610;-62
2024/01/31 11:59:23;;;;;;;3.60;1.60;;;6.50;99.90;;;;;;5019453;28;20970;-62
2024/01/31 12:01:51;;;;;;;1.60;1.10;;;6.50;99.90;;;;;;5017569;28;20502;-61
2024/01/31 12:04:22;;;;;;;1.20;1.20;;;6.50;99.90;;;;;;5018964;28;20558;-61
2024/01/31 12:06:50;;;;;;;1.80;1.40;;;6.50;99.90;;;;;;5018504;28;20471;-61
2024/01/31 12:09:18;;;;;;;3.40;1.50;;;6.50;99.90;;;;;;5018854;28;20471;-61
2024/01/31 12:11:46;;;;;;;2.70;1.93;;;6.60;99.90;;;;;;5017509;28;20581;-61
2024/01/31 12:14:16;;;;;;;2.20;1.70;;;6.50;99.90;;;;;;5016831;28;20479;-61
2024/01/31 12:16:44;;;;;;;4.37;2.20;;;6.50;99.90;;;;;;5017979;28;20546;-62
2024/01/31 12:19:19;;;;;;;2.30;2.10;;;6.50;99.90;;;;;;5017421;28;20503;-61
2024/01/31 12:21:47;;;;;;;4.30;2.90;;;6.40;99.90;;;;;;5009842;28;20573;-61
2024/01/31 12:24:15;;;;;;;3.20;2.33;;;6.40;99.90;;;;;;5012182;28;20648;-62
2024/01/31 12:26:43;;;;;;;3.03;2.23;;;6.30;99.90;;;;;;5017243;28;20969;-62
2024/01/31 12:29:11;;;;;;;2.87;2.43;;;6.30;99.90;;;;;;5012718;28;20541;-61
2024/01/31 12:31:41;;;;;;;3.07;2.53;;;6.20;99.90;;;;;;5015212;28;20558;-61
2024/01/31 12:34:10;;;;;;;3.20;2.80;;;6.20;99.90;;;;;;5006772;28;20473;-62
2024/01/31 12:36:37;;;;;;;6.47;4.87;;;6.20;99.90;;;;;;5019654;28;20574;-62
2024/01/31 12:39:08;;;;;;;5.40;4.90;;;6.20;99.90;;;;;;5012307;28;20985;-62
2024/01/31 12:41:36;;;;;;;6.63;6.13;;;6.20;99.90;;;;;;5015132;28;20499;-63
2024/01/31 12:44:05;;;;;;;8.00;7.30;;;6.20;99.90;;;;;;5013462;28;20476;-62
2024/01/31 12:46:33;;;;;;;6.30;5.70;;;6.10;99.90;;;;;;5014421;28;20480;-62
2024/01/31 12:49:03;;;;;;;6.00;5.40;;;6.10;99.90;;;;;;5012174;28;20859;-63
2024/01/31 12:51:31;;;;;;;6.43;5.40;;;6.20;99.90;;;;;;5006923;28;20499;-62
2024/01/31 12:53:59;;;;;;;5.33;4.93;;;6.10;99.90;;;;;;5017490;28;20558;-62
2024/01/31 12:56:28;;;;;;;4.77;4.37;;;6.10;99.90;;;;;;5016546;28;21197;-62
2024/01/31 12:58:57;;;;;;;4.53;4.13;;;6.10;99.90;;;;;;5005186;28;20976;-62
2024/01/31 13:01:25;;;;;;;4.20;3.80;;;6.00;99.90;;;;;;5010613;28;20590;-62
2024/01/31 13:03:53;;;;;;;4.10;3.70;;;6.00;99.90;;;;;;5014516;28;20475;-62
2024/01/31 13:06:23;;;;;;;6.17;4.00;;;6.00;99.90;;;;;;5019407;28;20471;-62